You are listening to:
KSDF Ground/Tower #1 - Louisville, Kentucky, United States

KSDF 210412Z 28012KT 10SM SCT022 BKN250 07/03 A3002 RMK AO2 T00670028

If stream does not start automatically press the play button